Hovedside
METAR-TAF:

METAR-TAF

Lufthavner :

Karachi, Pakistan

Jinnah internasjonale lufthavn

breddegrad: 24-54N, lengdegrad: 067-08E, høyde over havet: 21 m

Gjeldene værobservasjon

Denne rapporten ble laget for 40 minutter siden, klokken 20:55 UTC
Vind 6 kt fra Nordøst
Temperatur 15°C
Luftfuktighet 33%
Trykk 1017 hPa
Sikt: 6000 m

METAR: OPKC 182055Z 04006KT 6000 NSC 15/M01 Q1017 NOSIG

Tid: 02:35 (21:35 UTC)

Varsel

Denne rapporten ble laget for 5 timer og 35 minutter siden, klokken 16:00 UTC
Varsel gyldig fra 18. klokken 18 UTC til 19. klokken 24 UTC
Vind 5 kt fra Nordøst med vindkast opp mot 15 kt
Sikt: 4000 m
dis
Midlertidig
fra 19. klokken 00 UTC til 19. klokken 04 UTC
Vind 5 kt fra Nord-nordøst
Sikt: 3000 m
røyk
Fra UTC
Vind 10 kt fra Nordøst
Sikt: 6000 m
Fra UTC
Vind 7 kt fra Nord-nordøst
Sikt: 4000 m
røyk

TAF: OPKC 181600Z 1818/1924 05005G15KT 4000 HZ NSC TEMPO 1900/1904 02005KT 3000 FU NSC FM 190700 04010KT 6000 NSC FM 191500 02007KT 4000 FU NSC

Værobservasjoner og værvarsel for over 4000 flyplasser (METAR- og TAF-rapporter).

Tilgjengelige stasjoner er representert av de røde og gule prikkene på kartet.

Hold musepekeren over prikken for å se navnet på stasjonen.

Klikk så for å se værobservasjoner og -varsler.

For å forandre kartet kan du klikke på den grønne knappen med svart kryss for å zoome inn, på den grønne knappen med strek for å zoome ut, eller på de grønne pilene for å se tilstøtende kart.


METAR-TAF: